Chestnut, New Jersey
Current Conditions -  °F | °C
As of 8:51 PM on Wednesday 17 Dec 2014 (Local Time) from KEWR Reporting Station
Broken Clouds Broken Clouds  
Wind Chill: 38°   Ceiling: 5000
Heat Index: 44°   Visibility: 10mi
Dew Point: 29°   Wind: 13mph
Humidity: 55%   Direction: 280°W
Pressure: 29.91"   Gusts: 24mph
Location:  40.6941°N, 74.2694°W
Report Text: KEWR 180151Z 28011G21KT 10SM FEW035 BKN050 BKN060 07/M02 A2991 RMK AO2 SLP126 T00671017 PNO $
Loading
Personal Weather Stations






























Interactive Weather Map New forecast layout! Learn more

10-Day Weather Forecast

Advertisements
Track Severe Weather on mobile